Francisco Y Miriam — EA3478 — position and weather

sailwx.info

Track history (hours):
 
Tides and Currents Weather Stations Pressure Air Temp Water Temp Dewpoint Dewpoint Depression Visibility Wind Speed Wind Dir Waves Ship Positions

Francisco Y Miriam

Last reported at 2018-Jun-14 20:31 UTC. Time now 2018-Jun-21 10:11 UTC.
Position N 37°60' W 000°34'.

Length 18 m.

Type: Fishing. MMSI: 224150820.

Date/timePositionNaut miles runAvg speedWind from/ knotsBaromVisibWave heightAir tempDewpointWater temp
2018-Jun-14 20:31N 37°60' W 000°34'0 8.6
2018-Jun-14 20:30N 37°60' W 000°34'4 8.5
2018-Jun-14 20:00N 37°58' W 000°39'1 0.1
2018-Jun-14 06:11N 37°58' W 000°41'0 0.3
2018-Jun-14 06:00N 37°58' W 000°41'4 8.4
2018-Jun-14 05:30N 37°54' W 000°39'5 9.3
2018-Jun-14 05:01N 37°50' W 000°37'5 9.1
2018-Jun-14 04:31N 37°46' W 000°35'3 4.9
2018-Jun-14 03:59N 37°44' W 000°32'0 0.3
2018-Jun-14 03:29N 37°44' W 000°32'1 1.6
2018-Jun-14 02:57N 37°45' W 000°32'9 8.6
2018-Jun-14 01:52N 37°54' W 000°28'4 9.0
2018-Jun-14 01:28N 37°57' W 000°27'4 7.1
2018-Jun-14 00:56N 37°59' W 000°23'6 3.5
2018-Jun-13 23:06N 37°59' W 000°31'1 8.8
2018-Jun-13 23:00N 37°59' W 000°32'4 9.0
2018-Jun-13 22:31N 37°58' W 000°38'3 5.2
2018-Jun-13 22:00N 37°58' W 000°41'0 0.0
2018-Jun-13 05:42N 37°58' W 000°41'1 2.9
2018-Jun-13 05:30N 37°58' W 000°41'4 8.6
2018-Jun-13 05:00N 37°59' W 000°36'5 9.0
2018-Jun-13 04:28N 38°01' W 000°30'5 8.8
2018-Jun-13 03:51N 38°02' W 000°23'1 0.5
2018-Jun-13 02:09N 38°01' W 000°22'2 6.0
2018-Jun-13 01:47N 37°59' W 000°23'2 4.8
2018-Jun-13 01:21N 37°58' W 000°25'0 0.3
2018-Jun-13 00:58N 37°58' W 000°25'3 6.2
2018-Jun-13 00:30N 37°56' W 000°28'5 8.8
2018-Jun-12 23:58N 37°56' W 000°34'4 9.2
2018-Jun-12 23:30N 37°57' W 000°39'2 3.8
2018-Jun-12 23:00N 37°58' W 000°41'0 0.0
2018-Jun-12 22:30N 37°58' W 000°41'0 0.0
2018-Jun-12 22:00N 37°58' W 000°41'0 0.0
2018-Jun-12 07:10N 37°58' W 000°41'0 0.0
2018-Jun-12 07:00N 37°58' W 000°41'0 0.0
2018-Jun-12 06:30N 37°58' W 000°41'0 0.0
2018-Jun-12 06:00N 37°58' W 000°41'2 3.1
2018-Jun-12 05:30N 37°57' W 000°40'4 9.0
2018-Jun-12 05:01N 37°55' W 000°35'4 8.3
2018-Jun-12 04:31N 37°53' W 000°31'0 0.5
2018-Jun-12 04:00N 37°53' W 000°30'0 0.1
2018-Jun-12 03:29N 37°53' W 000°30'1 1.4
2018-Jun-12 03:00N 37°53' W 000°30'5 9.6
2018-Jun-12 02:29N 37°58' W 000°26'5 8.9
2018-Jun-12 01:58N 38°01' W 000°23'4 9.2
2018-Jun-12 01:31N 38°04' W 000°19'  
2018-Jun-06 00:25N 38°17' W 000°14'  
Track history (hours):
 
Tides and Currents Weather Stations Pressure Air Temp Water Temp Dewpoint Dewpoint Depression Visibility Wind Speed Wind Dir Waves Ship Positions

Francisco Y Miriam

Last reported at 2018-Jun-14 20:31 UTC. Time now 2018-Jun-21 10:11 UTC.
Position N 37°60' W 000°34'.

Length 18 m.

Type: Fishing. MMSI: 224150820.

Date/timePositionNaut miles runAvg speedWind from/ knotsBaromVisibWave heightAir tempDewpointWater temp
2018-Jun-14 20:31N 37°60' W 000°34'0 8.6
2018-Jun-14 20:30N 37°60' W 000°34'4 8.5
2018-Jun-14 20:00N 37°58' W 000°39'1 0.1
2018-Jun-14 06:11N 37°58' W 000°41'0 0.3
2018-Jun-14 06:00N 37°58' W 000°41'4 8.4
2018-Jun-14 05:30N 37°54' W 000°39'5 9.3
2018-Jun-14 05:01N 37°50' W 000°37'5 9.1
2018-Jun-14 04:31N 37°46' W 000°35'3 4.9
2018-Jun-14 03:59N 37°44' W 000°32'0 0.3
2018-Jun-14 03:29N 37°44' W 000°32'1 1.6
2018-Jun-14 02:57N 37°45' W 000°32'9 8.6
2018-Jun-14 01:52N 37°54' W 000°28'4 9.0
2018-Jun-14 01:28N 37°57' W 000°27'4 7.1
2018-Jun-14 00:56N 37°59' W 000°23'6 3.5
2018-Jun-13 23:06N 37°59' W 000°31'1 8.8
2018-Jun-13 23:00N 37°59' W 000°32'4 9.0
2018-Jun-13 22:31N 37°58' W 000°38'3 5.2
2018-Jun-13 22:00N 37°58' W 000°41'0 0.0
2018-Jun-13 05:42N 37°58' W 000°41'1 2.9
2018-Jun-13 05:30N 37°58' W 000°41'4 8.6
2018-Jun-13 05:00N 37°59' W 000°36'5 9.0
2018-Jun-13 04:28N 38°01' W 000°30'5 8.8
2018-Jun-13 03:51N 38°02' W 000°23'1 0.5
2018-Jun-13 02:09N 38°01' W 000°22'2 6.0
2018-Jun-13 01:47N 37°59' W 000°23'2 4.8
2018-Jun-13 01:21N 37°58' W 000°25'0 0.3
2018-Jun-13 00:58N 37°58' W 000°25'3 6.2
2018-Jun-13 00:30N 37°56' W 000°28'5 8.8
2018-Jun-12 23:58N 37°56' W 000°34'4 9.2
2018-Jun-12 23:30N 37°57' W 000°39'2 3.8
2018-Jun-12 23:00N 37°58' W 000°41'0 0.0
2018-Jun-12 22:30N 37°58' W 000°41'0 0.0
2018-Jun-12 22:00N 37°58' W 000°41'0 0.0
2018-Jun-12 07:10N 37°58' W 000°41'0 0.0
2018-Jun-12 07:00N 37°58' W 000°41'0 0.0
2018-Jun-12 06:30N 37°58' W 000°41'0 0.0
2018-Jun-12 06:00N 37°58' W 000°41'2 3.1
2018-Jun-12 05:30N 37°57' W 000°40'4 9.0
2018-Jun-12 05:01N 37°55' W 000°35'4 8.3
2018-Jun-12 04:31N 37°53' W 000°31'0 0.5
2018-Jun-12 04:00N 37°53' W 000°30'0 0.1
2018-Jun-12 03:29N 37°53' W 000°30'1 1.4
2018-Jun-12 03:00N 37°53' W 000°30'5 9.6
2018-Jun-12 02:29N 37°58' W 000°26'5 8.9
2018-Jun-12 01:58N 38°01' W 000°23'4 9.2
2018-Jun-12 01:31N 38°04' W 000°19'  
2018-Jun-06 00:25N 38°17' W 000°14'  

Dump ship's entire track history